createdAt,value
2023-03-13T00:00:27.802Z,987.73
2023-03-13T00:01:27.830Z,987.71
2023-03-13T00:02:27.960Z,987.67
2023-03-13T00:03:27.780Z,987.67
2023-03-13T00:04:27.788Z,987.66
2023-03-13T00:05:27.756Z,987.64
2023-03-13T00:06:27.753Z,987.63
2023-03-13T00:07:28.002Z,987.61
2023-03-13T00:08:27.736Z,987.60
2023-03-13T00:09:27.717Z,987.61
2023-03-13T00:10:27.727Z,987.63
2023-03-13T00:11:27.721Z,987.64
2023-03-13T00:12:27.700Z,987.62
2023-03-13T00:13:27.727Z,987.59
2023-03-13T00:14:27.681Z,987.58
2023-03-13T00:15:27.694Z,987.56
2023-03-13T00:16:27.758Z,987.54
2023-03-13T00:17:27.654Z,987.54
2023-03-13T00:18:27.677Z,987.52
2023-03-13T00:19:27.690Z,987.49
2023-03-13T00:20:27.659Z,987.48
2023-03-13T00:21:27.655Z,987.46
2023-03-13T00:22:27.651Z,987.44
2023-03-13T00:23:27.656Z,987.42
2023-03-13T00:24:27.628Z,987.42
2023-03-13T00:25:27.651Z,987.41
2023-03-13T00:26:27.593Z,987.41
2023-03-13T00:27:27.576Z,987.42
2023-03-13T00:28:27.576Z,987.43
2023-03-13T00:29:27.598Z,987.44
2023-03-13T00:30:27.589Z,987.43
2023-03-13T00:31:27.807Z,987.41
2023-03-13T00:32:27.559Z,987.38
2023-03-13T00:33:27.540Z,987.33
2023-03-13T00:34:27.582Z,987.31
2023-03-13T00:35:27.591Z,987.28
2023-03-13T00:36:27.560Z,987.26
2023-03-13T00:37:27.541Z,987.23
2023-03-13T00:38:27.506Z,987.21
2023-03-13T00:39:27.500Z,987.18
2023-03-13T00:40:27.506Z,987.15
2023-03-13T00:41:27.486Z,987.13
2023-03-13T00:42:27.475Z,987.10
2023-03-13T00:43:27.516Z,987.08
2023-03-13T00:44:27.467Z,987.07
2023-03-13T00:45:27.472Z,987.06
2023-03-13T00:46:27.572Z,987.04
2023-03-13T00:47:27.438Z,987.01
2023-03-13T00:48:27.442Z,986.98
2023-03-13T00:49:27.486Z,986.96
2023-03-13T00:50:27.443Z,986.93
2023-03-13T00:51:27.732Z,986.92
2023-03-13T00:52:27.414Z,986.91
2023-03-13T00:53:27.408Z,986.89
2023-03-13T00:54:27.406Z,986.87
2023-03-13T00:55:27.430Z,986.85
2023-03-13T00:56:27.375Z,986.82
2023-03-13T00:57:27.374Z,986.79
2023-03-13T00:58:27.354Z,986.78
2023-03-13T00:59:27.368Z,986.78
2023-03-13T01:00:27.337Z,986.77
2023-03-13T01:01:27.369Z,986.76
2023-03-13T01:02:27.484Z,986.76
2023-03-13T01:03:27.448Z,986.74
2023-03-13T01:04:27.346Z,986.69
2023-03-13T01:05:27.314Z,986.64
2023-03-13T01:06:27.320Z,986.60
2023-03-13T01:07:27.715Z,986.58
2023-03-13T01:08:27.289Z,986.56
2023-03-13T01:09:27.289Z,986.54
2023-03-13T01:10:27.278Z,986.53
2023-03-13T01:11:27.286Z,986.51
2023-03-13T01:12:27.305Z,986.49
2023-03-13T01:13:27.324Z,986.48
2023-03-13T01:14:27.257Z,986.48
2023-03-13T01:15:27.247Z,986.48
2023-03-13T01:16:27.249Z,986.45
2023-03-13T01:17:27.212Z,986.42
2023-03-13T01:18:27.211Z,986.39
2023-03-13T01:19:27.234Z,986.36
2023-03-13T01:20:27.234Z,986.33
2023-03-13T01:21:27.224Z,986.29
2023-03-13T01:22:27.170Z,986.23
2023-03-13T01:23:27.195Z,986.16
2023-03-13T01:24:27.177Z,986.14
2023-03-13T01:25:27.228Z,986.10
2023-03-13T01:26:27.166Z,986.08
2023-03-13T01:27:27.240Z,986.06
2023-03-13T01:28:27.143Z,986.06
2023-03-13T01:29:27.236Z,986.05
2023-03-13T01:30:27.119Z,986.04
2023-03-13T01:31:27.342Z,986.03
2023-03-13T01:32:27.136Z,986.01
2023-03-13T01:33:27.488Z,985.99
2023-03-13T01:34:27.101Z,985.97
2023-03-13T01:35:27.215Z,985.95
2023-03-13T01:36:27.105Z,985.96
2023-03-13T01:37:27.279Z,985.94
2023-03-13T01:38:27.082Z,985.94
2023-03-13T01:39:27.229Z,985.94
2023-03-13T01:40:27.068Z,985.90
2023-03-13T01:41:27.174Z,985.88
2023-03-13T01:42:27.043Z,985.87
2023-03-13T01:43:27.717Z,985.86
2023-03-13T01:44:27.017Z,985.86
2023-03-13T01:45:27.225Z,985.87
2023-03-13T01:46:27.164Z,985.87
2023-03-13T01:47:27.163Z,985.86
2023-03-13T01:48:27.047Z,985.84
2023-03-13T01:49:27.138Z,985.85
2023-03-13T01:50:26.993Z,985.84
2023-03-13T01:51:27.106Z,985.83
2023-03-13T01:52:27.017Z,985.82
2023-03-13T01:53:27.097Z,985.81
2023-03-13T01:54:26.949Z,985.77
2023-03-13T01:55:27.448Z,985.74
2023-03-13T01:56:26.994Z,985.69
2023-03-13T01:57:27.033Z,985.66
2023-03-13T01:58:26.934Z,985.64
2023-03-13T01:59:26.996Z,985.61
2023-03-13T02:00:26.933Z,985.58
2023-03-13T02:01:27.150Z,985.55
2023-03-13T02:02:26.922Z,985.51
2023-03-13T02:03:27.057Z,985.48
2023-03-13T02:04:26.897Z,985.49
2023-03-13T02:05:26.955Z,985.50
2023-03-13T02:06:26.918Z,985.51
2023-03-13T02:07:27.047Z,985.51
2023-03-13T02:08:26.838Z,985.47
2023-03-13T02:09:26.982Z,985.42
2023-03-13T02:10:26.879Z,985.36
2023-03-13T02:11:26.916Z,985.34
2023-03-13T02:12:26.806Z,985.31
2023-03-13T02:13:27.323Z,985.30
2023-03-13T02:14:26.810Z,985.31
2023-03-13T02:15:26.836Z,985.31
2023-03-13T02:16:26.838Z,985.29
2023-03-13T02:17:27.041Z,985.28
2023-03-13T02:18:26.815Z,985.25
2023-03-13T02:19:26.869Z,985.22
2023-03-13T02:20:26.767Z,985.19
2023-03-13T02:21:26.829Z,985.17
2023-03-13T02:22:26.737Z,985.14
2023-03-13T02:23:26.738Z,985.12
2023-03-13T02:24:26.761Z,985.09
2023-03-13T02:25:26.778Z,985.06
2023-03-13T02:26:26.725Z,985.04
2023-03-13T02:27:26.766Z,985.05
2023-03-13T02:28:26.685Z,985.08
2023-03-13T02:29:26.768Z,985.09
2023-03-13T02:30:26.687Z,985.08
2023-03-13T02:31:26.897Z,985.06
2023-03-13T02:32:26.764Z,985.02
2023-03-13T02:33:26.740Z,985.00
2023-03-13T02:34:26.659Z,984.99
2023-03-13T02:35:27.116Z,984.97
2023-03-13T02:36:26.691Z,984.97
2023-03-13T02:37:26.803Z,984.95
2023-03-13T02:38:26.654Z,984.95
2023-03-13T02:39:27.170Z,984.95
2023-03-13T02:40:26.615Z,984.97
2023-03-13T02:41:26.707Z,984.98
2023-03-13T02:42:26.613Z,984.99
2023-03-13T02:43:26.776Z,984.96
2023-03-13T02:44:26.581Z,984.97
2023-03-13T02:45:26.695Z,984.95
2023-03-13T02:46:26.682Z,984.93
2023-03-13T02:47:26.669Z,984.91
2023-03-13T02:48:26.561Z,984.88
2023-03-13T02:49:26.665Z,984.84
2023-03-13T02:50:26.567Z,984.81
2023-03-13T02:51:26.617Z,984.77
2023-03-13T02:52:26.524Z,984.73
2023-03-13T02:53:26.633Z,984.70
2023-03-13T02:54:26.519Z,984.67
2023-03-13T02:55:26.705Z,984.66
2023-03-13T02:56:26.521Z,984.63
2023-03-13T02:57:26.818Z,984.62
2023-03-13T02:58:26.513Z,984.57
2023-03-13T02:59:26.547Z,984.55
2023-03-13T03:00:26.500Z,984.55
2023-03-13T03:01:26.642Z,984.51
2023-03-13T03:02:26.477Z,984.50
2023-03-13T03:03:26.540Z,984.46
2023-03-13T03:04:26.473Z,984.42
2023-03-13T03:05:26.601Z,984.38
2023-03-13T03:06:26.467Z,984.36
2023-03-13T03:07:26.563Z,984.33
2023-03-13T03:08:26.412Z,984.32
2023-03-13T03:09:26.523Z,984.30
2023-03-13T03:10:26.426Z,984.29
2023-03-13T03:11:26.458Z,984.26
2023-03-13T03:12:26.389Z,984.26
2023-03-13T03:13:26.460Z,984.25
2023-03-13T03:14:26.392Z,984.22
2023-03-13T03:15:26.855Z,984.19
2023-03-13T03:16:26.382Z,984.17
2023-03-13T03:17:26.918Z,984.14
2023-03-13T03:18:26.339Z,984.12
2023-03-13T03:19:26.840Z,984.09
2023-03-13T03:20:26.336Z,984.11
2023-03-13T03:21:26.418Z,984.09
2023-03-13T03:22:26.305Z,984.07
2023-03-13T03:23:26.307Z,984.06
2023-03-13T03:24:26.295Z,984.04
2023-03-13T03:25:26.342Z,984.03
2023-03-13T03:26:26.279Z,984.05
2023-03-13T03:27:26.370Z,984.06
2023-03-13T03:28:26.265Z,984.03
2023-03-13T03:29:26.451Z,984.01
2023-03-13T03:30:26.243Z,983.99
2023-03-13T03:31:26.448Z,984.00
2023-03-13T03:32:26.230Z,983.98
2023-03-13T03:33:26.661Z,983.98
2023-03-13T03:34:26.222Z,983.97
2023-03-13T03:35:26.323Z,983.98
2023-03-13T03:36:26.198Z,983.97
2023-03-13T03:37:27.337Z,983.95
2023-03-13T03:38:26.188Z,983.92
2023-03-13T03:39:26.245Z,983.90
2023-03-13T03:40:26.155Z,983.87
2023-03-13T03:41:27.337Z,983.84
2023-03-13T03:42:26.152Z,983.86
2023-03-13T03:43:28.306Z,983.90
2023-03-13T03:44:26.144Z,983.90
2023-03-13T03:45:26.459Z,983.89
2023-03-13T03:46:26.132Z,983.89
2023-03-13T03:47:26.231Z,983.88
2023-03-13T03:48:27.180Z,983.86
2023-03-13T03:49:27.274Z,983.86
2023-03-13T03:50:26.102Z,983.87
2023-03-13T03:51:26.666Z,983.86
2023-03-13T03:52:26.088Z,983.86
2023-03-13T03:53:26.133Z,983.85
2023-03-13T03:54:26.082Z,983.83
2023-03-13T03:55:27.198Z,983.80
2023-03-13T03:56:26.052Z,983.74
2023-03-13T03:57:26.058Z,983.71
2023-03-13T03:58:26.044Z,983.69
2023-03-13T03:59:26.031Z,983.68
2023-03-13T04:00:26.081Z,983.66
2023-03-13T04:01:26.055Z,983.62
2023-03-13T04:02:26.074Z,983.58
2023-03-13T04:03:26.054Z,983.57
2023-03-13T04:04:25.993Z,983.55
2023-03-13T04:05:26.009Z,983.51
2023-03-13T04:06:25.983Z,983.50
2023-03-13T04:07:26.030Z,983.48
2023-03-13T04:08:25.990Z,983.43
2023-03-13T04:09:25.979Z,983.37
2023-03-13T04:10:25.972Z,983.35
2023-03-13T04:11:25.978Z,983.32
2023-03-13T04:12:25.956Z,983.30
2023-03-13T04:13:25.991Z,983.27
2023-03-13T04:14:25.920Z,983.28
2023-03-13T04:15:25.923Z,983.30
2023-03-13T04:16:25.973Z,983.25
2023-03-13T04:17:25.921Z,983.23
2023-03-13T04:18:25.900Z,983.23
2023-03-13T04:19:25.964Z,983.20
2023-03-13T04:20:25.915Z,983.17
2023-03-13T04:21:25.880Z,983.17
2023-03-13T04:22:25.887Z,983.16
2023-03-13T04:23:25.873Z,983.17
2023-03-13T04:24:25.878Z,983.16
2023-03-13T04:25:26.112Z,983.11
2023-03-13T04:26:25.851Z,983.11
2023-03-13T04:27:25.856Z,983.13
2023-03-13T04:28:25.864Z,983.16
2023-03-13T04:29:25.849Z,983.17
2023-03-13T04:30:25.829Z,983.21
2023-03-13T04:31:25.855Z,983.21
2023-03-13T04:32:25.833Z,983.19
2023-03-13T04:33:25.814Z,983.15
2023-03-13T04:34:25.822Z,983.13
2023-03-13T04:35:25.855Z,983.13
2023-03-13T04:36:25.868Z,983.14
2023-03-13T04:37:25.800Z,983.15
2023-03-13T04:38:25.769Z,983.13
2023-03-13T04:39:25.851Z,983.12
2023-03-13T04:40:25.768Z,983.11
2023-03-13T04:41:25.749Z,983.10
2023-03-13T04:42:25.740Z,983.05
2023-03-13T04:43:25.777Z,983.03
2023-03-13T04:44:25.742Z,983.02
2023-03-13T04:45:25.698Z,983.07
2023-03-13T04:46:25.817Z,983.07
2023-03-13T04:47:25.715Z,983.06
2023-03-13T04:48:25.697Z,983.07
2023-03-13T04:49:25.739Z,983.08
2023-03-13T04:50:25.698Z,983.01
2023-03-13T04:51:25.659Z,983.00
2023-03-13T04:52:25.659Z,982.97
2023-03-13T04:53:25.657Z,982.88
2023-03-13T04:54:25.688Z,982.86
2023-03-13T04:55:25.702Z,982.80
2023-03-13T04:56:41.742Z,982.80
2023-03-13T04:57:26.645Z,982.86
2023-03-13T04:58:25.634Z,982.83
2023-03-13T04:59:25.622Z,982.78
2023-03-13T05:00:25.620Z,982.76
2023-03-13T05:01:25.660Z,982.79
2023-03-13T05:02:25.613Z,982.74
2023-03-13T05:03:25.596Z,982.73
2023-03-13T05:04:25.623Z,982.71
2023-03-13T05:05:25.708Z,982.70
2023-03-13T05:06:25.598Z,982.64
2023-03-13T05:07:25.660Z,982.55
2023-03-13T05:08:25.533Z,982.59
2023-03-13T05:09:25.596Z,982.56
2023-03-13T05:10:25.563Z,982.57
2023-03-13T05:11:25.521Z,982.58
2023-03-13T05:12:25.517Z,982.57
2023-03-13T05:13:25.551Z,982.52
2023-03-13T05:14:25.498Z,982.52
2023-03-13T05:15:25.500Z,982.55
2023-03-13T05:16:25.501Z,982.56
2023-03-13T05:17:25.475Z,982.57
2023-03-13T05:18:25.476Z,982.55
2023-03-13T05:19:25.545Z,982.55
2023-03-13T05:20:25.452Z,982.53
2023-03-13T05:21:25.468Z,982.50
2023-03-13T05:22:25.495Z,982.47
2023-03-13T05:23:25.458Z,982.50
2023-03-13T05:24:25.446Z,982.43
2023-03-13T05:25:25.541Z,982.38
2023-03-13T05:26:25.425Z,982.35
2023-03-13T05:27:25.601Z,982.27
2023-03-13T05:28:25.411Z,982.24
2023-03-13T05:29:58.524Z,982.33
2023-03-13T05:30:26.425Z,982.38
2023-03-13T05:31:25.419Z,982.42
2023-03-13T05:32:25.582Z,982.41
2023-03-13T05:33:25.374Z,982.39
2023-03-13T05:34:25.372Z,982.44
2023-03-13T05:35:25.392Z,982.41
2023-03-13T05:36:25.393Z,982.40
2023-03-13T05:37:25.336Z,982.38
2023-03-13T05:38:25.357Z,982.38
2023-03-13T05:39:25.333Z,982.37
2023-03-13T05:40:25.318Z,982.41
2023-03-13T05:41:25.291Z,982.47
2023-03-13T05:42:25.337Z,982.57
2023-03-13T05:43:25.301Z,982.60
2023-03-13T05:44:25.283Z,982.62
2023-03-13T05:45:25.285Z,982.62
2023-03-13T05:46:25.298Z,982.63
2023-03-13T05:47:25.271Z,982.64
2023-03-13T05:48:25.278Z,982.60
2023-03-13T05:49:25.334Z,982.58
2023-03-13T05:50:25.247Z,982.55
2023-03-13T05:51:25.241Z,982.54
2023-03-13T05:52:25.251Z,982.49
2023-03-13T05:53:25.266Z,982.42
2023-03-13T05:54:25.292Z,982.32
2023-03-13T05:55:25.268Z,982.20
2023-03-13T05:56:25.205Z,982.17
2023-03-13T05:57:28.602Z,982.16
2023-03-13T05:58:25.244Z,982.15
2023-03-13T05:59:25.161Z,982.10
2023-03-13T06:00:25.240Z,982.06
2023-03-13T06:01:25.146Z,982.11
2023-03-13T06:02:25.166Z,982.12
2023-03-13T06:03:25.238Z,982.08
2023-03-13T06:04:25.260Z,982.08
2023-03-13T06:05:25.125Z,982.03
2023-03-13T06:06:25.190Z,982.05
2023-03-13T06:07:25.120Z,982.04
2023-03-13T06:08:25.116Z,982.01
2023-03-13T06:09:25.103Z,981.98
2023-03-13T06:10:25.113Z,982.01
2023-03-13T06:11:25.097Z,982.00
2023-03-13T06:12:25.128Z,981.99
2023-03-13T06:13:25.075Z,981.98
2023-03-13T06:14:25.065Z,981.98
2023-03-13T06:15:25.070Z,981.96
2023-03-13T06:16:25.185Z,981.97
2023-03-13T06:17:25.076Z,981.99
2023-03-13T06:18:25.080Z,982.02
2023-03-13T06:19:25.054Z,982.01
2023-03-13T06:20:25.052Z,981.99
2023-03-13T06:21:25.037Z,982.00
2023-03-13T06:22:25.007Z,982.02
2023-03-13T06:23:25.006Z,982.06
2023-03-13T06:24:25.044Z,982.08
2023-03-13T06:25:25.001Z,982.08
2023-03-13T06:26:24.973Z,982.05
2023-03-13T06:27:24.939Z,982.03
2023-03-13T06:28:24.969Z,982.03
2023-03-13T06:29:24.995Z,982.06
2023-03-13T06:30:25.367Z,982.07
2023-03-13T06:31:24.994Z,982.10
2023-03-13T06:32:24.977Z,982.08
2023-03-13T06:33:24.986Z,982.03
2023-03-13T06:34:24.888Z,982.04
2023-03-13T06:35:24.882Z,982.02
2023-03-13T06:36:24.964Z,982.04
2023-03-13T06:37:24.891Z,982.07
2023-03-13T06:38:24.901Z,982.00
2023-03-13T06:39:24.871Z,981.95
2023-03-13T06:40:24.862Z,981.93
2023-03-13T06:41:24.850Z,981.94
2023-03-13T06:42:24.970Z,981.96
2023-03-13T06:43:24.998Z,981.98
2023-03-13T06:44:24.867Z,982.01
2023-03-13T06:45:24.817Z,981.98
2023-03-13T06:46:24.948Z,981.98
2023-03-13T06:47:24.831Z,981.96
2023-03-13T06:48:24.849Z,981.97
2023-03-13T06:49:24.796Z,981.99
2023-03-13T06:50:24.810Z,982.03
2023-03-13T06:51:24.788Z,982.01
2023-03-13T06:52:37.454Z,982.02
2023-03-13T06:53:25.838Z,982.06
2023-03-13T06:54:24.778Z,982.07
2023-03-13T06:55:24.764Z,982.08
2023-03-13T06:56:24.758Z,982.10
2023-03-13T06:57:24.766Z,982.11
2023-03-13T06:58:32.074Z,982.08
2023-03-13T06:59:25.764Z,982.05
2023-03-13T07:00:24.757Z,982.01
2023-03-13T07:01:24.818Z,982.02
2023-03-13T07:02:24.739Z,982.01
2023-03-13T07:03:24.697Z,981.98
2023-03-13T07:04:24.684Z,982.02
2023-03-13T07:05:24.719Z,981.99
2023-03-13T07:06:24.739Z,982.01
2023-03-13T07:07:31.764Z,982.01
2023-03-13T07:08:25.702Z,982.02
2023-03-13T07:09:24.662Z,982.05
2023-03-13T07:10:25.201Z,982.06
2023-03-13T07:11:24.663Z,982.04
2023-03-13T07:12:24.639Z,982.07
2023-03-13T07:13:24.622Z,982.07
2023-03-13T07:14:24.634Z,982.12
2023-03-13T07:15:24.615Z,982.16
2023-03-13T07:16:24.655Z,982.17
2023-03-13T07:17:24.675Z,982.19
2023-03-13T07:18:24.618Z,982.17
2023-03-13T07:19:24.594Z,982.18
2023-03-13T07:20:24.642Z,982.17
2023-03-13T07:21:25.176Z,982.15
2023-03-13T07:22:24.597Z,982.16
2023-03-13T07:23:24.613Z,982.16
2023-03-13T07:24:24.593Z,982.14
2023-03-13T07:25:24.556Z,982.09
2023-03-13T07:26:24.595Z,982.10
2023-03-13T07:27:24.626Z,982.08
2023-03-13T07:28:24.561Z,982.04
2023-03-13T07:29:24.622Z,981.99
2023-03-13T07:30:24.509Z,982.03
2023-03-13T07:31:24.761Z,982.04
2023-03-13T07:32:24.561Z,982.00
2023-03-13T07:33:24.475Z,981.97
2023-03-13T07:34:24.492Z,981.90
2023-03-13T07:35:24.909Z,981.88
2023-03-13T07:36:24.558Z,981.85
2023-03-13T07:37:24.487Z,981.84
2023-03-13T07:38:24.473Z,981.81
2023-03-13T07:39:25.992Z,981.78
2023-03-13T07:40:24.447Z,981.77
2023-03-13T07:41:24.487Z,981.84
2023-03-13T07:42:24.435Z,981.81
2023-03-13T07:43:24.427Z,981.85
2023-03-13T07:44:24.428Z,981.88
2023-03-13T07:45:24.405Z,981.90
2023-03-13T07:46:24.504Z,981.88
2023-03-13T07:47:24.440Z,981.88
2023-03-13T07:48:24.408Z,981.90
2023-03-13T07:49:24.376Z,981.90
2023-03-13T07:50:24.431Z,981.92
2023-03-13T07:51:36.859Z,981.96
2023-03-13T07:52:25.415Z,981.96
2023-03-13T07:53:24.402Z,982.01
2023-03-13T07:54:24.338Z,982.14
2023-03-13T07:55:24.334Z,982.21
2023-03-13T07:56:24.349Z,982.26
2023-03-13T07:57:24.371Z,982.20
2023-03-13T07:58:24.372Z,982.18
2023-03-13T07:59:24.312Z,982.17
2023-03-13T08:00:24.296Z,982.11
2023-03-13T08:01:26.032Z,982.15
2023-03-13T08:02:24.358Z,982.14
2023-03-13T08:03:24.335Z,982.16
2023-03-13T08:04:24.302Z,982.18
2023-03-13T08:05:24.258Z,982.17
2023-03-13T08:06:24.257Z,982.20
2023-03-13T08:07:24.239Z,982.24
2023-03-13T08:08:24.257Z,982.25
2023-03-13T08:09:24.585Z,982.27
2023-03-13T08:10:24.283Z,982.30
2023-03-13T08:11:24.264Z,982.28
2023-03-13T08:12:24.236Z,982.21
2023-03-13T08:13:24.226Z,982.28
2023-03-13T08:14:24.201Z,982.23
2023-03-13T08:15:24.180Z,982.25
2023-03-13T08:16:24.264Z,982.28
2023-03-13T08:17:24.170Z,982.26
2023-03-13T08:18:24.170Z,982.25
2023-03-13T08:19:24.151Z,982.20
2023-03-13T08:20:24.163Z,982.23
2023-03-13T08:21:24.165Z,982.22
2023-03-13T08:22:24.180Z,982.23
2023-03-13T08:23:24.139Z,982.21
2023-03-13T08:24:24.115Z,982.19
2023-03-13T08:25:24.120Z,982.21
2023-03-13T08:26:24.101Z,982.21
2023-03-13T08:27:24.114Z,982.20
2023-03-13T08:28:24.167Z,982.22
2023-03-13T08:29:24.141Z,982.21
2023-03-13T08:30:24.082Z,982.18
2023-03-13T08:31:24.078Z,982.20
2023-03-13T08:32:24.159Z,982.20
2023-03-13T08:33:24.131Z,982.18
2023-03-13T08:34:24.077Z,982.13
2023-03-13T08:35:24.083Z,982.13
2023-03-13T08:36:24.043Z,982.13
2023-03-13T08:37:24.036Z,982.16
2023-03-13T08:38:24.009Z,982.20
2023-03-13T08:39:24.028Z,982.19
2023-03-13T08:40:24.270Z,982.17
2023-03-13T08:41:24.131Z,982.14
2023-03-13T08:42:24.015Z,982.11
2023-03-13T08:43:23.984Z,982.11
2023-03-13T08:44:23.982Z,982.10
2023-03-13T08:45:23.971Z,982.09
2023-03-13T08:46:24.052Z,982.06
2023-03-13T08:47:23.958Z,981.99
2023-03-13T08:48:23.958Z,981.99
2023-03-13T08:49:23.964Z,981.96
2023-03-13T08:50:23.950Z,981.96
2023-03-13T08:51:23.935Z,981.95
2023-03-13T08:52:24.002Z,981.93
2023-03-13T08:53:23.921Z,981.90
2023-03-13T08:54:23.942Z,981.87
2023-03-13T08:55:25.617Z,981.81
2023-03-13T08:56:23.916Z,981.83
2023-03-13T08:57:23.896Z,981.84
2023-03-13T08:58:23.918Z,981.86
2023-03-13T08:59:23.871Z,981.77
2023-03-13T09:00:23.896Z,981.76
2023-03-13T09:01:23.842Z,981.77
2023-03-13T09:02:23.892Z,981.68
2023-03-13T09:03:23.898Z,981.68
2023-03-13T09:04:23.891Z,981.64
2023-03-13T09:05:23.810Z,981.59
2023-03-13T09:06:23.807Z,981.62
2023-03-13T09:07:23.831Z,981.57
2023-03-13T09:08:23.836Z,981.53
2023-03-13T09:09:24.651Z,981.51
2023-03-13T09:10:23.852Z,981.47
2023-03-13T09:11:23.758Z,981.49
2023-03-13T09:12:30.740Z,981.44
2023-03-13T09:13:24.755Z,981.45
2023-03-13T09:14:23.739Z,981.40
2023-03-13T09:15:23.730Z,981.34
2023-03-13T09:16:23.855Z,981.34
2023-03-13T09:17:23.718Z,981.36
2023-03-13T09:18:23.773Z,981.34
2023-03-13T09:19:23.703Z,981.32
2023-03-13T09:20:23.759Z,981.26
2023-03-13T09:21:23.709Z,981.26
2023-03-13T09:22:23.741Z,981.20
2023-03-13T09:23:23.688Z,981.23
2023-03-13T09:24:23.662Z,981.24
2023-03-13T09:25:23.656Z,981.26
2023-03-13T09:26:23.748Z,981.34
2023-03-13T09:27:23.646Z,981.32
2023-03-13T09:28:23.725Z,981.30
2023-03-13T09:29:23.680Z,981.37
2023-03-13T09:30:23.676Z,981.37
2023-03-13T09:31:23.754Z,981.36
2023-03-13T09:32:23.628Z,981.41
2023-03-13T09:33:23.616Z,981.32
2023-03-13T09:34:23.669Z,981.35
2023-03-13T09:35:23.593Z,981.36
2023-03-13T09:36:23.684Z,981.40
2023-03-13T09:37:23.571Z,981.39
2023-03-13T09:38:23.585Z,981.32
2023-03-13T09:39:23.553Z,981.31
2023-03-13T09:40:23.624Z,981.18
2023-03-13T09:41:23.562Z,981.26
2023-03-13T09:42:23.557Z,981.26
2023-03-13T09:43:23.534Z,981.23
2023-03-13T09:44:23.531Z,981.17
2023-03-13T09:45:23.509Z,981.08
2023-03-13T09:46:23.660Z,981.10
2023-03-13T09:47:23.511Z,981.09
2023-03-13T09:48:23.489Z,981.12
2023-03-13T09:49:23.492Z,981.09
2023-03-13T09:50:23.491Z,981.07
2023-03-13T09:51:23.499Z,981.05
2023-03-13T09:52:23.511Z,981.16
2023-03-13T09:53:23.538Z,981.12
2023-03-13T09:54:23.450Z,981.12
2023-03-13T09:55:23.472Z,981.12
2023-03-13T09:56:23.608Z,981.13
2023-03-13T09:57:23.433Z,981.16
2023-03-13T09:58:23.492Z,981.13
2023-03-13T09:59:23.426Z,981.14
2023-03-13T10:00:23.417Z,981.09
2023-03-13T10:01:23.467Z,981.10
2023-03-13T10:02:23.409Z,981.07
2023-03-13T10:03:23.389Z,981.14
2023-03-13T10:04:23.448Z,981.16
2023-03-13T10:05:23.394Z,981.10
2023-03-13T10:06:23.402Z,981.12
2023-03-13T10:07:23.374Z,981.14
2023-03-13T10:08:23.341Z,981.14
2023-03-13T10:09:23.417Z,981.21
2023-03-13T10:10:23.407Z,981.27
2023-03-13T10:11:23.340Z,981.20
2023-03-13T10:12:23.322Z,981.21
2023-03-13T10:13:23.308Z,981.24
2023-03-13T10:14:23.324Z,981.22
2023-03-13T10:15:23.285Z,981.23
2023-03-13T10:16:23.421Z,981.25
2023-03-13T10:17:23.286Z,981.20
2023-03-13T10:18:23.304Z,981.22
2023-03-13T10:19:23.274Z,981.21
2023-03-13T10:20:23.274Z,981.22
2023-03-13T10:21:23.274Z,981.25
2023-03-13T10:22:23.285Z,981.16
2023-03-13T10:23:23.374Z,981.12
2023-03-13T10:24:23.244Z,981.11
2023-03-13T10:25:23.247Z,981.08
2023-03-13T10:26:23.214Z,981.11
2023-03-13T10:27:23.230Z,981.17
2023-03-13T10:28:23.224Z,981.20
2023-03-13T10:29:23.208Z,981.18
2023-03-13T10:30:23.219Z,981.22
2023-03-13T10:31:23.228Z,981.21
2023-03-13T10:32:23.264Z,981.11
2023-03-13T10:33:23.153Z,981.08
2023-03-13T10:34:23.209Z,981.13
2023-03-13T10:35:23.175Z,981.11
2023-03-13T10:36:23.148Z,981.15
2023-03-13T10:37:23.158Z,981.16
2023-03-13T10:38:25.587Z,981.06
2023-03-13T10:39:23.162Z,981.04
2023-03-13T10:40:23.193Z,981.03
2023-03-13T10:41:23.098Z,980.98
2023-03-13T10:42:23.113Z,981.01
2023-03-13T10:43:23.102Z,981.05
2023-03-13T10:44:23.134Z,981.08
2023-03-13T10:45:25.199Z,981.04
2023-03-13T10:46:23.154Z,981.00
2023-03-13T10:47:23.066Z,980.93
2023-03-13T10:48:23.067Z,980.98
2023-03-13T10:49:23.089Z,980.99
2023-03-13T10:50:23.066Z,980.91
2023-03-13T10:51:23.036Z,980.90
2023-03-13T10:52:23.075Z,980.95
2023-03-13T10:53:23.016Z,980.97
2023-03-13T10:54:23.004Z,980.89
2023-03-13T10:55:23.070Z,980.93
2023-03-13T10:56:23.019Z,980.87
2023-03-13T10:57:23.020Z,980.82
2023-03-13T10:58:23.063Z,980.83
2023-03-13T10:59:23.004Z,980.76
2023-03-13T11:00:22.975Z,980.72
2023-03-13T11:01:22.969Z,980.79
2023-03-13T11:02:23.009Z,980.79
2023-03-13T11:03:23.113Z,980.87
2023-03-13T11:04:22.999Z,980.86
2023-03-13T11:05:22.924Z,980.87
2023-03-13T11:06:22.930Z,980.88
2023-03-13T11:07:22.939Z,980.87
2023-03-13T11:08:23.009Z,980.98
2023-03-13T11:09:22.910Z,980.86
2023-03-13T11:10:22.948Z,980.84
2023-03-13T11:11:22.893Z,980.84
2023-03-13T11:12:22.864Z,980.84
2023-03-13T11:13:35.618Z,980.82
2023-03-13T11:14:23.867Z,980.85
2023-03-13T11:15:23.082Z,980.83
2023-03-13T11:16:23.068Z,980.78
2023-03-13T11:17:22.861Z,980.80
2023-03-13T11:18:22.895Z,980.83
2023-03-13T11:19:22.841Z,980.85
2023-03-13T11:20:22.849Z,980.85
2023-03-13T11:21:22.838Z,980.78
2023-03-13T11:22:22.903Z,980.78
2023-03-13T11:23:22.792Z,980.76
2023-03-13T11:24:22.833Z,980.69
2023-03-13T11:25:22.804Z,980.69
2023-03-13T11:26:22.798Z,980.73
2023-03-13T11:27:22.828Z,980.71
2023-03-13T11:28:22.827Z,980.67
2023-03-13T11:29:22.827Z,980.74
2023-03-13T11:30:22.837Z,980.72
2023-03-13T11:31:22.756Z,980.70
2023-03-13T11:32:22.805Z,980.64
2023-03-13T11:33:22.738Z,980.64
2023-03-13T11:34:22.802Z,980.71
2023-03-13T11:35:22.710Z,980.65
2023-03-13T11:36:22.711Z,980.61
2023-03-13T11:37:22.733Z,980.57
2023-03-13T11:38:22.662Z,980.57
2023-03-13T11:39:22.666Z,980.57
2023-03-13T11:40:22.754Z,980.54
2023-03-13T11:41:22.692Z,980.54
2023-03-13T11:42:22.682Z,980.58
2023-03-13T11:43:25.796Z,980.54
2023-03-13T11:44:22.668Z,980.56
2023-03-13T11:45:22.724Z,980.50
2023-03-13T11:46:23.137Z,980.50
2023-03-13T11:47:22.617Z,980.48
2023-03-13T11:48:22.614Z,980.54
2023-03-13T11:49:22.616Z,980.53
2023-03-13T11:50:22.594Z,980.47
2023-03-13T11:51:22.622Z,980.47
2023-03-13T11:52:22.619Z,980.52
2023-03-13T11:53:22.661Z,980.53
2023-03-13T11:54:22.547Z,980.58
2023-03-13T11:55:23.662Z,980.51
2023-03-13T11:56:22.624Z,980.45
2023-03-13T11:57:22.546Z,980.44
2023-03-13T11:58:22.598Z,980.40
2023-03-13T11:59:22.501Z,980.43
2023-03-13T12:00:22.524Z,980.44
2023-03-13T12:01:22.575Z,980.44
2023-03-13T12:02:22.574Z,980.43
2023-03-13T12:03:22.567Z,980.40
2023-03-13T12:04:22.533Z,980.35
2023-03-13T12:05:22.570Z,980.29
2023-03-13T12:06:28.398Z,980.30
2023-03-13T12:07:23.453Z,980.23
2023-03-13T12:08:22.465Z,980.19
2023-03-13T12:09:22.440Z,980.19
2023-03-13T12:10:22.501Z,980.07
2023-03-13T12:11:22.437Z,980.09
2023-03-13T12:12:22.437Z,980.13
2023-03-13T12:13:22.446Z,980.10
2023-03-13T12:14:22.449Z,980.09
2023-03-13T12:15:22.419Z,980.09
2023-03-13T12:16:22.495Z,980.05
2023-03-13T12:17:22.464Z,980.11
2023-03-13T12:18:22.419Z,980.10
2023-03-13T12:19:22.464Z,980.04
2023-03-13T12:20:22.391Z,979.94
2023-03-13T12:21:22.375Z,979.91
2023-03-13T12:22:22.420Z,979.91
2023-03-13T12:23:22.363Z,979.94
2023-03-13T12:24:22.316Z,979.94
2023-03-13T12:25:22.407Z,979.91
2023-03-13T12:26:22.397Z,979.83
2023-03-13T12:27:22.391Z,979.87
2023-03-13T12:28:23.982Z,979.84